Time;durP1;ratioP1;P1;durP2;ratioP2;P2;SDS_P1;SDS_P2;PMS_P1;PMS_P2;Temp;Humidity;BMP_temperature;BMP_pressure;BME280_temperature;BME280_humidity;BME280_pressure;Samples;Min_cycle;Max_cycle;Signal;HPM_P1;HPM_P2
2022/08/24 00:01:56;;;;;;;0.70;0.10;;;24.60;99.90;;;;;;4998702;28;20471;-72
2022/08/24 00:04:25;;;;;;;0.70;0.20;;;24.60;99.90;;;;;;4996077;28;20480;-72
2022/08/24 00:06:55;;;;;;;0.70;0.10;;;24.60;99.90;;;;;;5000298;28;20449;-71
2022/08/24 00:09:23;;;;;;;0.70;0.20;;;24.50;99.90;;;;;;5004319;28;20442;-72
2022/08/24 00:11:52;;;;;;;0.70;0.20;;;24.40;99.90;;;;;;5004027;28;20476;-72
2022/08/24 00:14:20;;;;;;;0.70;0.20;;;24.40;99.90;;;;;;5001111;28;20913;-71
2022/08/24 00:16:48;;;;;;;0.70;0.10;;;24.40;99.90;;;;;;4997925;28;20453;-71
2022/08/24 00:19:16;;;;;;;0.70;0.10;;;24.40;99.90;;;;;;4997204;28;20441;-71
2022/08/24 00:21:44;;;;;;;0.70;0.20;;;24.30;99.90;;;;;;4997438;28;20516;-71
2022/08/24 00:24:13;;;;;;;0.70;0.20;;;24.30;99.90;;;;;;4998186;28;20452;-71
2022/08/24 00:26:41;;;;;;;0.70;0.10;;;24.30;99.90;;;;;;4996778;28;20456;-71
2022/08/24 00:29:10;;;;;;;0.70;0.10;;;24.20;99.90;;;;;;4989863;28;20477;-71
2022/08/24 00:31:38;;;;;;;0.70;0.20;;;24.20;99.90;;;;;;4979954;28;20640;-71
2022/08/24 00:34:06;;;;;;;0.70;0.10;;;24.20;99.90;;;;;;4986927;28;20466;-71
2022/08/24 00:36:35;;;;;;;0.70;0.20;;;24.20;99.90;;;;;;4990394;28;20456;-71
2022/08/24 00:39:04;;;;;;;0.70;0.10;;;24.20;99.90;;;;;;5002938;28;20437;-71
2022/08/24 00:41:32;;;;;;;0.70;0.20;;;24.20;99.90;;;;;;5001891;28;20477;-71
2022/08/24 00:44:03;;;;;;;0.70;0.10;;;24.20;99.90;;;;;;5001712;28;20449;-72
2022/08/24 00:46:42;;;;;;;0.70;0.10;;;24.20;99.90;;;;;;5001740;28;20467;-71
2022/08/24 00:49:14;;;;;;;0.70;0.20;;;24.20;99.90;;;;;;5002941;28;20861;-71
2022/08/24 00:51:46;;;;;;;0.70;0.20;;;24.20;99.90;;;;;;5000070;28;20464;-72
2022/08/24 00:54:17;;;;;;;0.90;0.40;;;24.20;99.90;;;;;;5005844;28;20439;-72
2022/08/24 00:56:48;;;;;;;0.70;0.10;;;24.10;99.90;;;;;;5005702;28;20449;-72
2022/08/24 00:59:21;;;;;;;0.70;0.10;;;24.00;99.90;;;;;;5005277;28;20458;-72
2022/08/24 01:01:52;;;;;;;0.70;0.10;;;24.00;99.90;;;;;;5007125;28;20471;-72
2022/08/24 01:04:32;;;;;;;0.70;0.20;;;24.00;99.90;;;;;;5004785;28;20451;-72
2022/08/24 01:07:03;;;;;;;0.70;0.30;;;24.00;99.90;;;;;;5003267;28;20448;-72
2022/08/24 01:09:31;;;;;;;0.70;0.10;;;23.90;99.90;;;;;;4997089;28;20481;-72
2022/08/24 01:11:58;;;;;;;0.70;0.20;;;23.90;99.90;;;;;;5004098;28;20473;-72
2022/08/24 01:14:26;;;;;;;0.70;0.10;;;23.80;99.90;;;;;;5005699;28;20445;-72
2022/08/24 01:19:44;;;;;;;0.70;0.10;;;23.70;99.90;;;;;;5000065;28;20812;-72
2022/08/24 01:22:37;;;;;;;0.70;0.20;;;23.70;99.90;;;;;;5001794;28;20552;-72
2022/08/24 01:25:07;;;;;;;0.70;0.10;;;23.70;99.90;;;;;;5001067;28;20445;-71
2022/08/24 01:27:36;;;;;;;0.70;0.20;;;23.80;99.90;;;;;;4997973;28;20453;-71
2022/08/24 01:30:11;;;;;;;0.70;0.20;;;23.80;99.90;;;;;;4982162;28;20863;-72
2022/08/24 01:32:40;;;;;;;1.20;0.40;;;23.80;99.90;;;;;;4982580;28;20484;-71
2022/08/24 01:35:08;;;;;;;0.70;0.20;;;23.80;99.90;;;;;;4995802;28;20944;-71
2022/08/24 01:37:36;;;;;;;0.70;0.20;;;23.80;99.90;;;;;;4995477;28;20460;-72
2022/08/24 01:40:09;;;;;;;0.70;0.20;;;23.70;99.90;;;;;;4995903;28;20540;-72
2022/08/24 01:42:37;;;;;;;0.70;0.10;;;23.70;99.90;;;;;;4995326;28;20512;-71
2022/08/24 01:45:07;;;;;;;0.70;0.10;;;23.70;99.90;;;;;;4994684;28;20441;-70
2022/08/24 01:47:35;;;;;;;0.70;0.20;;;23.70;99.90;;;;;;4994050;28;20455;-72
2022/08/24 01:50:03;;;;;;;0.70;0.10;;;23.70;99.90;;;;;;4994361;28;20992;-70
2022/08/24 01:52:31;;;;;;;0.70;0.13;;;23.70;99.90;;;;;;4994289;28;20475;-72
2022/08/24 01:55:20;;;;;;;0.70;0.20;;;23.70;99.90;;;;;;4994375;28;20441;-71
2022/08/24 01:57:49;;;;;;;0.70;0.10;;;23.80;99.90;;;;;;4993850;28;20481;-71
2022/08/24 02:00:17;;;;;;;0.70;0.20;;;23.80;99.90;;;;;;4994556;28;20924;-71
2022/08/24 02:02:45;;;;;;;0.70;0.20;;;23.80;99.90;;;;;;4994139;28;20478;-71
2022/08/24 02:05:15;;;;;;;0.70;0.10;;;23.80;99.90;;;;;;4994117;28;20445;-71
2022/08/24 02:07:43;;;;;;;0.70;0.13;;;23.70;99.90;;;;;;4994138;28;20453;-71
2022/08/24 02:10:14;;;;;;;0.70;0.10;;;23.70;99.90;;;;;;4994120;28;20479;-71
2022/08/24 02:12:45;;;;;;;0.70;0.10;;;23.60;99.90;;;;;;4994504;28;20469;-71
2022/08/24 02:15:13;;;;;;;0.70;0.20;;;23.60;99.90;;;;;;4994596;28;20445;-71
2022/08/24 02:17:41;;;;;;;0.70;0.10;;;23.60;99.90;;;;;;4993939;28;20457;-71
2022/08/24 02:20:10;;;;;;;0.70;0.20;;;23.60;99.90;;;;;;4994660;28;20452;-71
2022/08/24 02:22:37;;;;;;;0.70;0.10;;;23.50;99.90;;;;;;4998111;28;20843;-71
2022/08/24 02:25:05;;;;;;;0.70;0.10;;;23.40;99.90;;;;;;4996330;28;20459;-71
2022/08/24 02:27:35;;;;;;;0.70;0.20;;;23.40;99.90;;;;;;4994218;28;20455;-69
2022/08/24 02:30:05;;;;;;;0.70;0.10;;;23.50;99.90;;;;;;4993656;28;20476;-70
2022/08/24 02:32:32;;;;;;;0.70;0.10;;;23.50;99.90;;;;;;4993558;28;21006;-70
2022/08/24 02:35:00;;;;;;;0.70;0.20;;;23.50;99.90;;;;;;4994030;28;20437;-70
2022/08/24 02:37:28;;;;;;;0.70;0.20;;;23.50;99.90;;;;;;4993215;28;20449;-71
2022/08/24 02:39:56;;;;;;;0.70;0.20;;;23.50;99.90;;;;;;4993527;28;20456;-70
2022/08/24 02:42:24;;;;;;;0.70;0.10;;;22.40;99.90;;;;;;4993699;28;20509;-71
2022/08/24 02:44:52;;;;;;;0.70;0.10;;;23.50;99.90;;;;;;4993665;28;20453;-70
2022/08/24 02:47:23;;;;;;;0.70;0.10;;;;;;;;;;4993459;28;20457;-70
2022/08/24 02:50:07;;;;;;;0.70;0.10;;;23.50;99.90;;;;;;4993329;28;20521;-71
2022/08/24 02:52:37;;;;;;;0.70;0.23;;;23.40;99.90;;;;;;4993565;28;20488;-71
2022/08/24 02:55:06;;;;;;;0.70;0.17;;;23.40;99.90;;;;;;4993501;28;20441;-71
2022/08/24 02:57:34;;;;;;;0.70;0.10;;;;;;;;;;4993116;28;20456;-70
2022/08/24 03:00:09;;;;;;;0.70;0.20;;;23.30;99.90;;;;;;4993412;28;20441;-71
2022/08/24 03:02:39;;;;;;;0.70;0.20;;;23.30;99.90;;;;;;4993221;28;20559;-71
2022/08/24 03:05:10;;;;;;;0.70;0.10;;;23.30;99.90;;;;;;4993596;28;20841;-71
2022/08/24 03:07:38;;;;;;;0.70;0.10;;;23.30;99.90;;;;;;4992665;28;20453;-71
2022/08/24 03:10:07;;;;;;;0.70;0.20;;;23.30;99.90;;;;;;4992945;28;20487;-71
2022/08/24 03:12:35;;;;;;;0.70;0.10;;;23.30;99.90;;;;;;4992669;28;20465;-70
2022/08/24 03:15:04;;;;;;;0.70;0.20;;;23.20;99.90;;;;;;4992621;28;20969;-71
2022/08/24 03:17:32;;;;;;;0.80;0.70;;;23.20;99.90;;;;;;4992398;28;20465;-71
2022/08/24 03:20:02;;;;;;;0.70;0.20;;;23.20;99.90;;;;;;4992339;28;20525;-71
2022/08/24 03:22:29;;;;;;;0.70;0.20;;;23.10;99.90;;;;;;4992371;28;20557;-71
2022/08/24 03:24:57;;;;;;;0.70;0.20;;;23.10;99.90;;;;;;4992715;28;20445;-72
2022/08/24 03:27:25;;;;;;;0.70;0.20;;;23.10;99.90;;;;;;4992272;28;20449;-71
2022/08/24 03:29:53;;;;;;;0.70;0.10;;;23.10;99.90;;;;;;4978678;28;20481;-71
2022/08/24 03:32:21;;;;;;;0.70;0.10;;;23.00;99.90;;;;;;4973278;28;20501;-71
2022/08/24 03:34:49;;;;;;;0.70;0.20;;;23.00;99.90;;;;;;4972873;28;20453;-71
2022/08/24 03:37:19;;;;;;;0.70;0.20;;;23.00;99.90;;;;;;4981859;28;20956;-71
2022/08/24 03:39:48;;;;;;;0.70;0.20;;;23.00;99.90;;;;;;4992736;28;20500;-71
2022/08/24 03:42:17;;;;;;;0.70;0.10;;;23.00;99.90;;;;;;4991764;28;20568;-71
2022/08/24 03:44:44;;;;;;;0.70;0.20;;;22.90;99.90;;;;;;4992446;28;20449;-70
2022/08/24 03:47:12;;;;;;;0.70;0.10;;;23.00;99.90;;;;;;4991855;28;20450;-71
2022/08/24 03:49:40;;;;;;;0.70;0.10;;;22.90;99.90;;;;;;4992095;28;21021;-71
2022/08/24 03:52:08;;;;;;;0.70;0.20;;;22.90;99.90;;;;;;4992457;28;20465;-71
2022/08/24 03:54:37;;;;;;;0.70;0.20;;;22.90;99.90;;;;;;4992201;28;20893;-71
2022/08/24 03:57:05;;;;;;;0.70;0.10;;;22.90;99.90;;;;;;4991871;28;20479;-71
2022/08/24 03:59:33;;;;;;;0.70;0.10;;;22.90;99.90;;;;;;4992218;28;20445;-71
2022/08/24 04:02:08;;;;;;;0.70;0.20;;;22.80;99.90;;;;;;4992540;28;20464;-71
2022/08/24 04:04:39;;;;;;;0.70;0.20;;;22.80;99.90;;;;;;4992429;28;20532;-71
2022/08/24 04:07:09;;;;;;;0.70;0.20;;;22.80;99.90;;;;;;4991955;28;20454;-71
2022/08/24 04:09:39;;;;;;;0.70;0.10;;;22.70;99.90;;;;;;4991726;28;20477;-71
2022/08/24 04:12:07;;;;;;;0.70;0.10;;;22.70;99.90;;;;;;4992307;28;20479;-71
2022/08/24 04:14:35;;;;;;;0.70;0.10;;;22.70;99.90;;;;;;4992265;28;20449;-70
2022/08/24 04:17:04;;;;;;;0.70;0.10;;;22.70;99.90;;;;;;4991883;28;20956;-70
2022/08/24 04:19:33;;;;;;;0.70;0.20;;;22.60;99.90;;;;;;4991978;28;20455;-70
2022/08/24 04:22:01;;;;;;;0.70;0.10;;;22.50;99.90;;;;;;4992096;28;20468;-70
2022/08/24 04:24:30;;;;;;;0.70;0.20;;;22.50;99.90;;;;;;4992091;28;20959;-71
2022/08/24 04:26:59;;;;;;;0.70;0.20;;;22.40;99.90;;;;;;4991976;28;20453;-71
2022/08/24 04:29:27;;;;;;;0.70;0.20;;;22.40;99.90;;;;;;4989771;28;20454;-70
2022/08/24 04:31:55;;;;;;;0.70;0.20;;;22.30;99.90;;;;;;4991947;28;20999;-71
2022/08/24 04:34:23;;;;;;;0.70;0.20;;;22.30;99.90;;;;;;4989817;28;20461;-71
2022/08/24 04:36:51;;;;;;;0.70;0.17;;;22.30;99.90;;;;;;4988197;28;20830;-70
2022/08/24 04:39:19;;;;;;;0.70;0.20;;;22.20;99.90;;;;;;4991831;28;20960;-70
2022/08/24 04:41:47;;;;;;;0.70;0.20;;;22.20;99.90;;;;;;4990843;28;20496;-71
2022/08/24 04:44:19;;;;;;;0.70;0.10;;;;;;;;;;4991814;28;20438;-70
2022/08/24 04:46:46;;;;;;;0.70;0.10;;;22.20;99.90;;;;;;5048094;23;20502;-72
2022/08/24 04:49:14;;;;;;;0.70;0.10;;;22.20;99.90;;;;;;5053183;28;20435;-72
2022/08/24 04:51:42;;;;;;;0.90;0.40;;;22.20;99.90;;;;;;5048927;28;20478;-72
2022/08/24 04:54:10;;;;;;;0.70;0.20;;;22.10;99.90;;;;;;5051960;28;20442;-72
2022/08/24 04:56:38;;;;;;;0.70;0.20;;;22.10;99.90;;;;;;5054930;28;20470;-72
2022/08/24 04:59:07;;;;;;;0.70;0.10;;;22.00;99.90;;;;;;5055036;28;20442;-73
2022/08/24 05:01:36;;;;;;;0.70;0.10;;;22.00;99.90;;;;;;5054815;28;20442;-72
2022/08/24 05:04:05;;;;;;;0.70;0.20;;;22.00;99.90;;;;;;5053360;28;20952;-73
2022/08/24 05:06:32;;;;;;;0.70;0.20;;;22.00;99.90;;;;;;5054439;28;20470;-74
2022/08/24 05:09:01;;;;;;;0.70;0.20;;;22.00;99.90;;;;;;5054690;28;20542;-74
2022/08/24 05:11:29;;;;;;;0.70;0.10;;;22.10;99.90;;;;;;5053730;28;20501;-73
2022/08/24 05:13:59;;;;;;;0.70;0.20;;;22.10;99.90;;;;;;5053952;28;20462;-74
2022/08/24 05:16:27;;;;;;;0.70;0.20;;;22.10;99.90;;;;;;5053355;28;20462;-72
2022/08/24 05:19:01;;;;;;;0.70;0.20;;;22.10;99.90;;;;;;5045759;28;20472;-72
2022/08/24 05:21:29;;;;;;;0.70;0.10;;;22.20;99.90;;;;;;5053387;28;20545;-72
2022/08/24 05:23:57;;;;;;;0.70;0.10;;;22.20;99.90;;;;;;5054113;28;20877;-72
2022/08/24 05:26:29;;;;;;;0.70;0.20;;;22.20;99.90;;;;;;5053621;28;20454;-72
2022/08/24 05:28:59;;;;;;;0.70;0.20;;;22.30;99.90;;;;;;5053983;28;20462;-73
2022/08/24 05:31:29;;;;;;;0.70;0.10;;;22.30;99.90;;;;;;5054189;28;20569;-72
2022/08/24 05:34:00;;;;;;;0.70;0.10;;;22.30;99.90;;;;;;5051857;28;20443;-75
2022/08/24 05:36:30;;;;;;;0.70;0.10;;;22.40;99.90;;;;;;5037651;28;20471;-72
2022/08/24 05:39:03;;;;;;;0.70;0.13;;;22.40;99.90;;;;;;5035698;28;20454;-73
2022/08/24 05:41:37;;;;;;;0.70;0.10;;;22.40;99.90;;;;;;5036965;28;20451;-73
2022/08/24 05:44:11;;;;;;;0.70;0.10;;;22.50;99.90;;;;;;5044361;28;20472;-73
2022/08/24 05:46:39;;;;;;;0.70;0.17;;;22.50;99.90;;;;;;5054347;28;20844;-72
2022/08/24 05:49:09;;;;;;;0.70;0.20;;;22.50;99.90;;;;;;5053586;28;20498;-72
2022/08/24 05:51:38;;;;;;;0.70;0.10;;;22.50;99.90;;;;;;5053221;28;20482;-73
2022/08/24 05:54:06;;;;;;;0.70;0.10;;;22.60;99.90;;;;;;5053070;28;20872;-73
2022/08/24 05:56:34;;;;;;;0.70;0.10;;;22.60;99.90;;;;;;5063400;28;20509;-72
2022/08/24 05:59:02;;;;;;;0.70;0.10;;;22.60;99.90;;;;;;5050195;28;20443;-73
2022/08/24 06:01:32;;;;;;;0.70;0.10;;;21.50;99.90;;;;;;5046741;28;20438;-74
2022/08/24 06:04:01;;;;;;;0.70;0.10;;;22.70;99.90;;;;;;5063938;28;20470;-72
2022/08/24 06:06:30;;;;;;;0.70;0.20;;;;;;;;;;5057595;28;20486;-71
2022/08/24 06:09:00;;;;;;;0.70;0.10;;;22.80;99.90;;;;;;5055600;28;20446;-72
2022/08/24 06:11:31;;;;;;;0.70;0.20;;;22.70;99.90;;;;;;5055399;28;20633;-71
2022/08/24 06:14:06;;;;;;;0.70;0.20;;;22.70;99.90;;;;;;5054068;28;20469;-76
2022/08/24 06:16:35;;;;;;;0.70;0.20;;;22.70;99.90;;;;;;5057220;28;20466;-77
2022/08/24 06:19:05;;;;;;;0.70;0.10;;;22.70;99.90;;;;;;5053098;28;20461;-72
2022/08/24 06:21:34;;;;;;;0.70;0.20;;;22.80;99.90;;;;;;5052341;28;20455;-71
2022/08/24 06:24:02;;;;;;;0.70;0.20;;;22.80;99.90;;;;;;5053219;28;20450;-72
2022/08/24 06:29:18;;;;;;;0.70;0.10;;;22.90;99.90;;;;;;5051844;28;20442;-72
2022/08/24 06:31:48;;;;;;;0.70;0.17;;;22.90;99.90;;;;;;5052855;28;20474;-71
2022/08/24 06:34:24;;;;;;;0.70;0.10;;;22.90;99.90;;;;;;5053202;28;20452;-74
2022/08/24 06:36:54;;;;;;;0.70;0.13;;;22.90;99.90;;;;;;5052437;28;20955;-72
2022/08/24 06:39:22;;;;;;;0.70;0.20;;;23.00;99.90;;;;;;5049916;28;20458;-72
2022/08/24 06:41:50;;;;;;;0.70;0.10;;;23.00;99.90;;;;;;5053085;28;20446;-72
2022/08/24 06:44:18;;;;;;;0.70;0.10;;;23.00;99.90;;;;;;5052850;28;20446;-73
2022/08/24 06:46:46;;;;;;;0.70;0.17;;;23.00;99.90;;;;;;5051995;28;20481;-74
2022/08/24 06:49:14;;;;;;;0.70;0.17;;;23.10;99.90;;;;;;5052785;28;20459;-73
2022/08/24 06:51:42;;;;;;;0.70;0.10;;;23.00;99.90;;;;;;5050796;28;20489;-74
2022/08/24 06:54:16;;;;;;;0.70;0.20;;;23.10;99.90;;;;;;5052080;28;20451;-72
2022/08/24 06:56:44;;;;;;;0.70;0.20;;;23.10;99.90;;;;;;5050409;28;21015;-73
2022/08/24 06:59:12;;;;;;;0.70;0.17;;;23.20;99.90;;;;;;5053335;28;20451;-73
2022/08/24 07:01:40;;;;;;;0.70;0.20;;;23.20;99.90;;;;;;5052240;28;20489;-73
2022/08/24 07:04:08;;;;;;;0.70;0.17;;;23.00;99.90;;;;;;5052840;28;20799;-74
2022/08/24 07:06:36;;;;;;;0.70;0.20;;;22.90;99.90;;;;;;5051830;28;20462;-74
2022/08/24 07:09:05;;;;;;;0.70;0.10;;;22.90;99.90;;;;;;5053447;28;20459;-74
2022/08/24 07:11:34;;;;;;;0.70;0.20;;;22.90;99.90;;;;;;5054008;28;20845;-78
2022/08/24 07:14:02;;;;;;;0.70;0.20;;;23.00;99.90;;;;;;5053702;28;20441;-73
2022/08/24 07:16:30;;;;;;;1.20;0.97;;;23.10;99.90;;;;;;5054888;28;20459;-74
2022/08/24 07:18:59;;;;;;;0.70;0.20;;;23.10;99.90;;;;;;5054343;28;20443;-73
2022/08/24 07:21:27;;;;;;;0.70;0.20;;;23.20;99.90;;;;;;5054348;28;20465;-75
2022/08/24 07:23:56;;;;;;;0.70;0.17;;;23.30;99.90;;;;;;5051898;28;21075;-71
2022/08/24 07:26:26;;;;;;;0.70;0.20;;;23.30;99.90;;;;;;5060084;28;20493;-71
2022/08/24 07:29:03;;;;;;;0.70;0.20;;;23.40;99.90;;;;;;5065754;28;20449;-71
2022/08/24 07:31:32;;;;;;;0.70;0.20;;;23.40;99.90;;;;;;5056502;28;20484;-72
2022/08/24 07:34:03;;;;;;;0.70;0.20;;;23.50;99.90;;;;;;5053620;28;20786;-71
2022/08/24 07:36:31;;;;;;;0.70;0.10;;;23.60;99.90;;;;;;5052564;28;20465;-70
2022/08/24 07:38:59;;;;;;;0.70;0.23;;;23.60;99.90;;;;;;5045016;28;20874;-71
2022/08/24 07:41:28;;;;;;;0.70;0.10;;;23.70;99.90;;;;;;5046496;28;20824;-70
2022/08/24 07:44:18;;;;;;;0.70;0.10;;;23.70;99.90;;;;;;5032451;28;20424;-70
2022/08/24 07:46:46;;;;;;;0.70;0.10;;;23.70;99.90;;;;;;5032224;28;20470;-72
2022/08/24 07:49:14;;;;;;;0.70;0.20;;;23.70;99.90;;;;;;5032105;28;20451;-71
2022/08/24 07:52:02;;;;;;;0.70;0.10;;;23.80;99.90;;;;;;5039632;28;20833;-69
2022/08/24 07:54:30;;;;;;;0.70;0.20;;;25.70;99.90;;;;;;5050314;28;20458;-70
2022/08/24 07:57:01;;;;;;;0.70;0.23;;;23.90;99.90;;;;;;5049790;28;20466;-70
2022/08/24 07:59:30;;;;;;;0.70;0.20;;;23.90;99.90;;;;;;5050034;28;20447;-71
2022/08/24 08:01:58;;;;;;;0.70;0.20;;;23.90;99.90;;;;;;5052568;28;20463;-70
2022/08/24 08:04:26;;;;;;;0.70;0.20;;;23.90;99.90;;;;;;5051297;28;20963;-69
2022/08/24 08:06:55;;;;;;;0.70;0.10;;;24.00;99.90;;;;;;5052052;28;20481;-68
2022/08/24 08:09:27;;;;;;;0.70;0.10;;;24.00;99.90;;;;;;5048237;28;20446;-72
2022/08/24 08:11:55;;;;;;;0.70;0.10;;;24.10;99.90;;;;;;5048010;28;20509;-71
2022/08/24 08:14:23;;;;;;;0.70;0.20;;;24.20;99.90;;;;;;5045276;28;20462;-69
2022/08/24 08:16:53;;;;;;;0.70;0.17;;;;;;;;;;5048158;28;20463;-72
2022/08/24 08:19:21;;;;;;;0.70;0.10;;;24.30;99.90;;;;;;5046253;28;20452;-68
2022/08/24 08:24:38;;;;;;;0.70;0.10;;;24.40;99.90;;;;;;5048589;28;20940;-71
2022/08/24 08:27:06;;;;;;;0.70;0.17;;;24.50;99.90;;;;;;5055562;28;20443;-70
2022/08/24 08:29:35;;;;;;;0.70;0.20;;;24.50;99.90;;;;;;5053930;28;20481;-71
2022/08/24 08:32:04;;;;;;;0.70;0.10;;;24.60;99.90;;;;;;5055313;28;21039;-69
2022/08/24 08:34:32;;;;;;;0.70;0.17;;;24.60;99.90;;;;;;5053452;28;20454;-70
2022/08/24 08:37:01;;;;;;;0.70;0.20;;;24.60;99.90;;;;;;5055134;28;20466;-70
2022/08/24 08:39:30;;;;;;;0.70;0.10;;;24.70;99.90;;;;;;5053224;28;20815;-69
2022/08/24 08:42:31;;;;;;;0.70;0.20;;;24.80;99.90;;;;;;5053973;28;20442;-69
2022/08/24 08:45:09;;;;;;;0.70;0.20;;;24.90;99.90;;;;;;5053162;28;20446;-70
2022/08/24 08:48:13;;;;;;;0.70;0.20;;;24.90;99.90;;;;;;5054685;28;20450;-69
2022/08/24 08:51:10;;;;;;;0.70;0.20;;;24.90;99.90;;;;;;5052718;28;20811;-69
2022/08/24 08:54:21;;;;;;;0.70;0.20;;;25.10;99.90;;;;;;5054572;28;20821;-70
2022/08/24 08:57:07;;;;;;;0.70;0.20;;;25.10;99.90;;;;;;5074840;28;20932;-70
2022/08/24 08:59:56;;;;;;;0.70;0.10;;;25.10;99.90;;;;;;5054173;28;20438;-70
2022/08/24 09:02:43;;;;;;;0.70;0.10;;;25.10;99.90;;;;;;5047737;28;20454;-68
2022/08/24 09:05:46;;;;;;;0.70;0.10;;;25.20;99.90;;;;;;5056690;28;20478;-70
2022/08/24 09:08:25;;;;;;;0.70;0.20;;;25.20;99.90;;;;;;5054586;28;20477;-70
2022/08/24 09:11:00;;;;;;;0.70;0.20;;;25.30;99.90;;;;;;5055014;28;20445;-71
2022/08/24 09:13:42;;;;;;;0.70;0.20;;;25.30;99.90;;;;;;5048021;28;20851;-72
2022/08/24 09:16:21;;;;;;;0.80;0.33;;;25.40;99.90;;;;;;5052380;28;20462;-71
2022/08/24 09:19:06;;;;;;;0.70;0.20;;;25.50;99.90;;;;;;5052167;28;20438;-72
2022/08/24 09:21:52;;;;;;;0.70;0.20;;;25.50;99.90;;;;;;5048139;28;20447;-70
2022/08/24 09:24:33;;;;;;;0.70;0.10;;;25.60;99.90;;;;;;5046232;28;20949;-71
2022/08/24 09:27:13;;;;;;;0.70;0.20;;;25.60;99.90;;;;;;5054449;28;20462;-70
2022/08/24 09:29:58;;;;;;;0.70;0.20;;;25.60;99.90;;;;;;5054443;28;20438;-71
2022/08/24 09:32:38;;;;;;;0.70;0.20;;;25.70;99.90;;;;;;5054896;28;20478;-70
2022/08/24 09:35:13;;;;;;;0.70;0.20;;;25.90;99.90;;;;;;5053724;28;20482;-71
2022/08/24 09:38:00;;;;;;;0.70;0.10;;;25.90;99.90;;;;;;5046613;28;20448;-71
2022/08/24 09:40:36;;;;;;;0.70;0.20;;;26.00;99.90;;;;;;5053887;28;20434;-70
2022/08/24 09:43:58;;;;;;;0.70;0.20;;;26.10;99.90;;;;;;5053476;28;20481;-71
2022/08/24 09:47:10;;;;;;;0.70;0.10;;;26.30;99.90;;;;;;5020289;28;20565;-72
2022/08/24 09:49:59;;;;;;;0.70;0.20;;;26.30;99.90;;;;;;5057445;28;20450;-71
2022/08/24 09:52:52;;;;;;;0.70;0.20;;;26.40;99.90;;;;;;5056370;28;20502;-70
2022/08/24 09:55:53;;;;;;;0.70;0.10;;;26.60;99.90;;;;;;5055579;28;20457;-72
2022/08/24 09:58:31;;;;;;;0.70;0.20;;;26.70;99.90;;;;;;5054236;28;20553;-71
2022/08/24 10:01:08;;;;;;;0.70;0.10;;;26.80;99.90;;;;;;5051189;28;20445;-72
2022/08/24 10:03:55;;;;;;;0.70;0.20;;;26.90;99.90;;;;;;5053962;28;20438;-72
2022/08/24 10:06:31;;;;;;;0.70;0.10;;;26.90;99.90;;;;;;5047085;28;20490;-69
2022/08/24 10:09:18;;;;;;;0.70;0.13;;;27.00;99.90;;;;;;5053908;28;20948;-74
2022/08/24 10:11:59;;;;;;;0.80;0.40;;;27.00;99.90;;;;;;5054344;28;20929;-71
2022/08/24 10:14:45;;;;;;;0.70;0.20;;;27.10;99.90;;;;;;5053606;28;20477;-70
2022/08/24 10:17:23;;;;;;;0.70;0.10;;;27.10;99.90;;;;;;5053885;28;20447;-70
2022/08/24 10:20:22;;;;;;;0.70;0.10;;;27.20;99.90;;;;;;5053194;28;20450;-70
2022/08/24 10:23:07;;;;;;;0.70;0.20;;;27.20;99.90;;;;;;5052919;28;20447;-72
2022/08/24 10:25:40;;;;;;;0.70;0.20;;;27.40;99.90;;;;;;5052990;28;20462;-70
2022/08/24 10:28:35;;;;;;;0.70;0.20;;;27.40;99.90;;;;;;5052183;28;20927;-69
2022/08/24 10:31:20;;;;;;;0.70;0.20;;;27.60;99.90;;;;;;5050940;28;20582;-70
2022/08/24 10:34:04;;;;;;;0.70;0.20;;;27.80;99.90;;;;;;5064197;28;20525;-70
2022/08/24 10:37:26;;;;;;;0.70;0.10;;;28.00;99.90;;;;;;5046534;28;20826;-70
2022/08/24 10:40:17;;;;;;;0.70;0.20;;;28.10;99.90;;;;;;4971755;28;20460;-70
2022/08/24 10:43:35;;;;;;;0.70;0.20;;;28.30;99.90;;;;;;5048733;28;20450;-70
2022/08/24 10:46:45;;;;;;;0.70;0.20;;;28.40;99.90;;;;;;4985115;28;20467;-71
2022/08/24 10:50:07;;;;;;;0.70;0.10;;;28.50;99.90;;;;;;5051986;28;20855;-71
2022/08/24 10:53:09;;;;;;;0.70;0.10;;;28.60;99.90;;;;;;5032297;28;20451;-72
2022/08/24 10:55:53;;;;;;;0.70;0.20;;;28.70;99.90;;;;;;5034085;28;20500;-72
2022/08/24 10:58:48;;;;;;;0.70;0.10;;;28.90;99.90;;;;;;5052190;28;20450;-72
2022/08/24 11:01:40;;;;;;;0.70;0.20;;;28.80;99.90;;;;;;5052277;28;20995;-70
2022/08/24 11:04:15;;;;;;;0.70;0.10;;;29.00;99.90;;;;;;5050889;28;20822;-70
2022/08/24 11:07:13;;;;;;;0.70;0.20;;;29.20;99.90;;;;;;5051549;28;20480;-72
2022/08/24 11:09:52;;;;;;;0.70;0.20;;;29.30;99.90;;;;;;5056520;28;20442;-71
2022/08/24 11:12:27;;;;;;;0.70;0.10;;;29.40;99.90;;;;;;5053780;28;20461;-72
2022/08/24 11:14:58;;;;;;;0.70;0.10;;;29.60;99.90;;;;;;5049622;28;20548;-70
2022/08/24 11:17:31;;;;;;;0.70;0.20;;;29.60;99.90;;;;;;5047521;28;20439;-72
2022/08/24 11:19:59;;;;;;;0.70;0.20;;;29.70;99.90;;;;;;5052291;28;20442;-71
2022/08/24 11:22:32;;;;;;;0.70;0.20;;;29.80;99.90;;;;;;5054653;28;20798;-71
2022/08/24 11:25:04;;;;;;;0.70;0.10;;;29.80;99.90;;;;;;5054760;28;20454;-72
2022/08/24 11:27:36;;;;;;;0.70;0.20;;;29.80;99.90;;;;;;5055199;28;20442;-70
2022/08/24 11:30:12;;;;;;;0.70;0.20;;;29.90;99.90;;;;;;5052493;28;20455;-70
2022/08/24 11:32:45;;;;;;;0.70;0.20;;;29.90;99.90;;;;;;5048045;28;20959;-72
2022/08/24 11:35:22;;;;;;;0.70;0.20;;;29.90;99.90;;;;;;5048458;28;20486;-72
2022/08/24 11:37:53;;;;;;;0.70;0.17;;;29.90;99.90;;;;;;5046863;28;20549;-76
2022/08/24 11:40:23;;;;;;;0.70;0.20;;;;;;;;;;5043330;28;20550;-74
2022/08/24 11:43:20;;;;;;;0.70;0.10;;;30.00;99.90;;;;;;5049805;28;20462;-73
2022/08/24 11:46:06;;;;;;;0.70;0.20;;;30.10;99.90;;;;;;5054892;28;20486;-72
2022/08/24 11:48:46;;;;;;;0.70;0.10;;;30.10;99.90;;;;;;5051713;28;20794;-71
2022/08/24 11:51:27;;;;;;;0.70;0.20;;;30.00;99.90;;;;;;5049753;28;20450;-70
2022/08/24 11:54:03;;;;;;;0.70;0.20;;;29.90;99.90;;;;;;5040392;28;20488;-71
2022/08/24 11:56:39;;;;;;;0.70;0.20;;;29.90;99.90;;;;;;5058630;28;20457;-69
2022/08/24 11:59:17;;;;;;;0.70;0.20;;;29.90;99.90;;;;;;5049306;28;20860;-69
2022/08/24 12:01:51;;;;;;;0.70;0.10;;;29.90;99.90;;;;;;5040819;28;20451;-70
2022/08/24 12:04:36;;;;;;;0.70;0.10;;;29.90;99.90;;;;;;5035441;28;20454;-70
2022/08/24 12:07:14;;;;;;;0.70;0.20;;;29.90;99.90;;;;;;5050993;28;20851;-69
2022/08/24 12:10:00;;;;;;;0.70;0.10;;;29.90;99.90;;;;;;5054542;28;20862;-69
2022/08/24 12:12:37;;;;;;;0.70;0.20;;;29.90;99.90;;;;;;5048344;28;20469;-71
2022/08/24 12:15:11;;;;;;;0.70;0.20;;;29.90;99.90;;;;;;5053244;28;20494;-70
2022/08/24 12:17:42;;;;;;;0.70;0.20;;;29.80;99.90;;;;;;5051400;28;20440;-70
2022/08/24 12:20:22;;;;;;;0.70;0.20;;;29.80;99.90;;;;;;5055974;28;20438;-69
2022/08/24 12:22:52;;;;;;;0.70;0.20;;;29.80;99.90;;;;;;5036379;28;20447;-73
2022/08/24 12:28:06;;;;;;;0.70;0.13;;;29.90;99.90;;;;;;5054735;28;20536;-71
2022/08/24 12:30:34;;;;;;;0.70;0.20;;;29.90;99.90;;;;;;5055750;28;20438;-70
2022/08/24 12:33:06;;;;;;;0.70;0.20;;;29.90;99.90;;;;;;5056104;28;20446;-70
2022/08/24 12:35:42;;;;;;;0.70;0.13;;;30.00;99.90;;;;;;5055356;28;20514;-69
2022/08/24 12:38:16;;;;;;;0.70;0.10;;;30.00;99.90;;;;;;5055964;28;20450;-68
2022/08/24 12:40:51;;;;;;;0.70;0.20;;;30.00;99.90;;;;;;5063129;28;20457;-69
2022/08/24 12:43:25;;;;;;;0.70;0.20;;;30.20;99.90;;;;;;5054778;28;20446;-70
2022/08/24 12:45:58;;;;;;;0.70;0.13;;;30.20;99.90;;;;;;5054785;28;20466;-69
2022/08/24 12:48:33;;;;;;;0.70;0.10;;;30.30;99.90;;;;;;5054949;28;20442;-70
2022/08/24 12:51:16;;;;;;;0.70;0.10;;;30.20;99.90;;;;;;5054345;28;20454;-70
2022/08/24 12:54:12;;;;;;;0.70;0.20;;;30.30;99.90;;;;;;5054754;28;20438;-71
2022/08/24 12:57:06;;;;;;;0.70;0.20;;;30.30;99.90;;;;;;5045437;28;20470;-69
2022/08/24 12:59:40;;;;;;;0.70;0.20;;;30.40;99.90;;;;;;5055641;28;20453;-68
2022/08/24 13:02:27;;;;;;;0.70;0.20;;;30.40;99.90;;;;;;5052681;28;20436;-69
2022/08/24 13:04:59;;;;;;;0.70;0.10;;;30.60;99.90;;;;;;5048897;28;20944;-70
2022/08/24 13:07:37;;;;;;;0.70;0.20;;;30.60;99.90;;;;;;5054879;28;20443;-70
2022/08/24 13:10:12;;;;;;;0.70;0.20;;;30.60;99.90;;;;;;5056743;28;20441;-70
2022/08/24 13:13:11;;;;;;;0.80;0.50;;;30.60;99.90;;;;;;5061061;28;20746;-69
2022/08/24 13:15:59;;;;;;;0.70;0.10;;;30.70;99.90;;;;;;5052712;28;21019;-70
2022/08/24 13:18:52;;;;;;;0.70;0.20;;;30.70;99.90;;;;;;5045435;28;20441;-71
2022/08/24 13:21:46;;;;;;;0.70;0.10;;;30.60;99.90;;;;;;5055255;28;20956;-69
2022/08/24 13:24:53;;;;;;;0.70;0.20;;;30.70;99.90;;;;;;5056331;28;20442;-69
2022/08/24 13:28:00;;;;;;;0.70;0.20;;;30.70;99.90;;;;;;5056965;28;20443;-71
2022/08/24 13:30:32;;;;;;;0.70;0.20;;;30.70;99.90;;;;;;5057340;28;20957;-70
2022/08/24 13:33:05;;;;;;;0.70;0.20;;;30.70;99.90;;;;;;5053857;28;20447;-70
2022/08/24 13:35:59;;;;;;;0.70;0.20;;;30.80;99.90;;;;;;5055489;28;20767;-70
2022/08/24 13:38:56;;;;;;;0.70;0.20;;;30.80;99.90;;;;;;5062739;28;20485;-70